Aeroporto :
LOGIN :

Iscrizione | Disclaimer

   EN    FR    IT 

 










Sommario :    VFR   VFR Marginale   IFR   IFR Intensivo   IFR Molto Intensivo
Visibilità : 
Base nubi : 
>= 8 km
>= 3000ft
5 / 8 km
1000 / 3000 ft
1500m / 5 km
500 / 1000 ft
800 / 1500m
200 / 500 ft
< 800m
< 200 ft
Simboli :   Temporali  Nebbia  Neve Forte  Precipitazioni Forti  Vento > 20 kt
SIGMETs :   Varie  Temporali  Ghiacco  Turbolenza  Onda orograficha  Ceneri Vulcaniche






- Altitudine del aeroporto : 1558 ft
- Codice IATA : IOA


LGIO - Ioannina

ULTIMO METAR :
  • 282250Z AUTO 00000KT //// // ////// 11/11 Q1016 RE//

METARs OBSOLETI :
  • 282220Z AUTO VRB01KT //// // ////// 11/11 Q1016 RE//
  • 282150Z AUTO VRB01KT //// // ////// 12/12 Q1016 RE//
  • 282120Z AUTO VRB01KT //// // ////// 12/12 Q1016 RE//
  • 282050Z AUTO VRB02KT //// // ////// 14/12 Q1016 RE//
  • 282020Z AUTO VRB01KT //// // ////// 14/12 Q1016 RE//
  • 281950Z AUTO VRB01KT //// // ////// 14/12 Q1016 RE//
  • 281920Z 15001KT 9999 FEW080 13/12 Q1016
  • 281850Z 00000KT 9999 FEW080 15/12 Q1016
  • 281820Z 17002KT 9999 FEW080 16/12 Q1016
  • 281750Z 17003KT 9999 SCT080 16/12 Q1016

TAF TAF LGIO
Valido dal 28 a 21 ore il 29 a 06 ore UTC


282000Z 2821/2906 VRB03KT 9999 FEW025
BECMG 2900/2902 SCT010
PROB40 2902/2906 3000 BR SCT008



MetMap, La meteo Aeronautica in un colpo d'occhio ! - Copyright ORBIFLY Dicembre 2007 - Disclaimer

ORBIFLY MET'MAP TEAM :

Programmazione e sviluppo : Alexandra Zaïnal
Concezione : Baudouin d'Aumeries
Supporto tecnico e logistico : Manuel Goepfert
Aiuto : Marc-Olivier Méhu
Aiuto per la traduzione : Arnaldo La Scala




FONTI E CREDITI :

   NOAA